Time;durP1;ratioP1;P1;durP2;ratioP2;P2;SDS_P1;SDS_P2;PMS_P1;PMS_P2;Temp;Humidity;BMP_temperature;BMP_pressure;BME280_temperature;BME280_humidity;BME280_pressure;Samples;Min_cycle;Max_cycle;Signal;HPM_P1;HPM_P2
2021/09/27 00:02:05;;;;;;;;;;;;;;;15.23;78.31;101396.94;1964083;73;20104;-61
2021/09/27 00:04:34;;;;;;;;;;;;;;;15.23;78.31;101390.31;1964074;73;20112;-61
2021/09/27 00:07:02;;;;;;;;;;;;;;;15.23;78.32;101390.31;1964128;73;20116;-61
2021/09/27 00:09:35;;;;;;;;;;;;;;;15.23;78.35;101392.08;1964158;73;20108;-61
2021/09/27 00:12:05;;;;;;;;;;;;;;;15.25;78.44;101391.53;1963988;73;20146;-62
2021/09/27 00:14:33;;;;;;;;;;;;;;;15.25;78.43;101394.19;1964081;73;20418;-61
2021/09/27 00:17:03;;;;;;;;;;;;;;;15.24;78.29;101397.31;1964021;73;20163;-61
2021/09/27 00:19:30;;;;;;;;;;;;;;;15.22;78.24;101399.19;1964111;73;20333;-61
2021/09/27 00:21:58;;;;;;;;;;;;;;;15.20;78.37;101402.86;1964063;73;20104;-61
2021/09/27 00:24:26;;;;;;;;;;;;;;;15.20;78.37;101394.91;1963959;73;20146;-61
2021/09/27 00:26:54;;;;;;;;;;;;;;;15.19;78.43;101396.67;1963945;73;20099;-62
2021/09/27 00:29:22;;;;;;;;;;;;;;;15.18;78.36;101390.11;1964117;73;20120;-62
2021/09/27 00:31:50;;;;;;;;;;;;;;;15.17;78.32;101392.39;1964158;73;20100;-61
2021/09/27 00:34:18;;;;;;;;;;;;;;;15.17;78.31;101392.39;1963958;73;20104;-61
2021/09/27 00:36:46;;;;;;;;;;;;;;;15.16;78.25;101394.62;1964051;73;20104;-61
2021/09/27 00:39:14;;;;;;;;;;;;;;;15.16;78.37;101381.37;1964009;73;20112;-63
2021/09/27 00:41:41;;;;;;;;;;;;;;;15.18;78.49;101383.48;1964050;73;20161;-61
2021/09/27 00:44:09;;;;;;;;;;;;;;;15.20;78.41;101381.64;1963990;73;20104;-61
2021/09/27 00:46:37;;;;;;;;;;;;;;;15.21;78.34;101382.86;1964036;73;20135;-61
2021/09/27 00:49:05;;;;;;;;;;;;;;;15.22;78.42;101383.75;1964022;73;20143;-61
2021/09/27 00:51:38;;;;;;;;;;;;;;;15.22;78.31;101379.29;1963965;73;20151;-61
2021/09/27 00:54:11;;;;;;;;;;;;;;;15.21;78.31;101380.69;1963886;73;20218;-61
2021/09/27 00:56:41;;;;;;;;;;;;;;;15.23;78.33;101388.09;1963247;73;20116;-61
2021/09/27 00:59:09;;;;;;;;;;;;;;;15.22;78.32;101388.58;1963174;73;20150;-61
2021/09/27 01:01:37;;;;;;;;;;;;;;;15.23;78.42;101382.80;1964093;73;20112;-61
2021/09/27 01:04:05;;;;;;;;;;;;;;;15.24;78.33;101390.69;1964028;73;20175;-62
2021/09/27 01:06:51;;;;;;;;;;;;;;;15.26;78.70;101391.94;1963936;73;20131;-61
2021/09/27 01:09:23;;;;;;;;;;;;;;;15.23;78.81;101394.73;1963970;73;20116;-61
2021/09/27 01:12:04;;;;;;;;;;;;;;;15.17;78.69;101386.61;1943806;73;20147;-61
2021/09/27 01:14:39;;;;;;;;;;;;;;;15.12;78.65;101383.30;1964251;73;20103;-61
2021/09/27 01:17:09;;;;;;;;;;;;;;;15.08;78.61;101380.89;1963217;73;20116;-61
2021/09/27 01:19:38;;;;;;;;;;;;;;;15.06;78.58;101383.61;1963318;73;20116;-61
2021/09/27 01:22:07;;;;;;;;;;;;;;;15.02;78.67;101379.39;1962112;73;20144;-61
2021/09/27 01:24:53;;;;;;;;;;;;;;;15.00;78.87;101382.11;1963450;73;20537;-61
2021/09/27 01:27:23;;;;;;;;;;;;;;;14.97;78.88;101384.89;1964117;73;20171;-61
2021/09/27 01:29:58;;;;;;;;;;;;;;;14.97;78.90;101384.89;1962377;73;20107;-62
2021/09/27 01:32:40;;;;;;;;;;;;;;;14.95;78.93;101388.09;1962353;73;20115;-61
2021/09/27 01:35:09;;;;;;;;;;;;;;;14.94;79.20;101386.39;1964160;73;20131;-61
2021/09/27 01:37:40;;;;;;;;;;;;;;;14.94;78.96;101394.34;1992123;72;20105;-63
2021/09/27 01:40:26;;;;;;;;;;;;;;;14.93;78.84;101400.56;2002248;72;20153;-62
2021/09/27 01:43:12;;;;;;;;;;;;;;;14.94;78.77;101404.06;2002242;72;20148;-63
2021/09/27 01:45:41;;;;;;;;;;;;;;;14.92;79.06;101395.33;2002282;72;20180;-62
2021/09/27 01:48:16;;;;;;;;;;;;;;;14.92;79.92;101398.86;2002118;72;20098;-63
2021/09/27 01:50:54;;;;;;;;;;;;;;;14.92;80.46;101394.88;2002269;72;20160;-61
2021/09/27 01:53:23;;;;;;;;;;;;;;;14.91;80.72;101394.95;2002264;72;20109;-62
2021/09/27 01:55:59;;;;;;;;;;;;;;;14.90;80.88;101395.39;1991974;72;20109;-62
2021/09/27 01:58:28;;;;;;;;;;;;;;;14.90;80.76;101402.02;2001783;72;20117;-63
2021/09/27 02:00:57;;;;;;;;;;;;;;;14.90;80.62;101401.17;2002271;72;20265;-62
2021/09/27 02:03:38;;;;;;;;;;;;;;;14.90;80.44;101406.00;2000636;72;20114;-62
2021/09/27 02:06:14;;;;;;;;;;;;;;;14.88;80.34;101396.41;2000841;72;20110;-62
2021/09/27 02:08:49;;;;;;;;;;;;;;;14.87;80.23;101404.84;2002309;72;20136;-62
2021/09/27 02:11:27;;;;;;;;;;;;;;;14.84;80.19;101407.63;2000558;72;20110;-62
2021/09/27 02:14:03;;;;;;;;;;;;;;;14.82;80.34;101401.53;2002238;72;20141;-62
2021/09/27 02:16:49;;;;;;;;;;;;;;;14.80;80.45;101399.42;2002265;72;20140;-61
2021/09/27 02:19:24;;;;;;;;;;;;;;;14.78;81.05;101406.59;2002218;72;20136;-63
2021/09/27 02:21:54;;;;;;;;;;;;;;;14.78;81.07;101407.91;2000930;72;20114;-62
2021/09/27 02:24:32;;;;;;;;;;;;;;;14.77;81.93;101410.16;2002301;72;20109;-62
2021/09/27 02:27:02;;;;;;;;;;;;;;;14.76;81.94;101412.43;2002118;72;20113;-60
2021/09/27 02:29:30;;;;;;;;;;;;;;;14.75;81.99;101412.02;2002241;72;20102;-62
2021/09/27 02:31:59;;;;;;;;;;;;;;;14.73;81.88;101407.26;2002168;72;20172;-62
2021/09/27 02:34:44;;;;;;;;;;;;;;;14.70;82.16;101411.36;2001429;72;20177;-62
2021/09/27 02:37:13;;;;;;;;;;;;;;;14.68;82.20;101411.42;2005035;71;20117;-62
2021/09/27 02:39:49;;;;;;;;;;;;;;;14.65;82.21;101401.84;1997838;71;20109;-62
2021/09/27 02:42:24;;;;;;;;;;;;;;;14.64;82.12;101400.13;2008359;71;20113;-63
2021/09/27 02:44:52;;;;;;;;;;;;;;;14.62;82.67;101406.41;2007951;71;20110;-62
2021/09/27 02:47:21;;;;;;;;;;;;;;;14.59;82.94;101406.10;2008523;71;20109;-62
2021/09/27 02:49:49;;;;;;;;;;;;;;;14.56;82.87;101403.55;2007758;71;20136;-62
2021/09/27 02:52:18;;;;;;;;;;;;;;;14.56;83.21;101408.84;2008530;71;20143;-62
2021/09/27 02:54:50;;;;;;;;;;;;;;;14.55;83.43;101403.17;2008478;71;20139;-62
2021/09/27 02:57:36;;;;;;;;;;;;;;;14.55;83.52;101407.14;2008495;71;20106;-62
2021/09/27 03:00:05;;;;;;;;;;;;;;;14.56;83.47;101411.97;2008555;71;20109;-62
2021/09/27 03:02:51;;;;;;;;;;;;;;;14.54;83.18;101404.09;2008449;71;20219;-62
2021/09/27 03:05:38;;;;;;;;;;;;;;;14.53;82.92;101405.00;2008368;71;20589;-62
2021/09/27 03:08:10;;;;;;;;;;;;;;;14.51;82.92;101408.19;2008488;71;20141;-62
2021/09/27 03:10:42;;;;;;;;;;;;;;;14.51;83.12;101406.86;2008563;71;20105;-62
2021/09/27 03:13:11;;;;;;;;;;;;;;;14.51;83.60;101399.38;2007945;71;20114;-62
2021/09/27 03:15:45;;;;;;;;;;;;;;;14.54;83.53;101395.28;2007963;71;20143;-63
2021/09/27 03:18:39;;;;;;;;;;;;;;;14.55;83.53;101400.52;1910623;75;20148;-61
2021/09/27 03:21:11;;;;;;;;;;;;;;;14.57;83.58;101402.66;1910542;75;20112;-62
2021/09/27 03:23:41;;;;;;;;;;;;;;;14.60;83.51;101395.87;1910612;75;20127;-62
2021/09/27 03:26:19;;;;;;;;;;;;;;;14.61;83.18;101397.61;1908219;75;20104;-62
2021/09/27 03:29:05;;;;;;;;;;;;;;;14.63;83.07;101406.83;1908940;75;20198;-62
2021/09/27 03:31:35;;;;;;;;;;;;;;;14.62;83.05;101400.64;1910520;75;20116;-62
2021/09/27 03:34:04;;;;;;;;;;;;;;;14.64;83.24;101400.13;1909231;75;20199;-61
2021/09/27 03:36:33;;;;;;;;;;;;;;;14.62;83.05;101402.44;1910555;75;20111;-62
2021/09/27 03:39:09;;;;;;;;;;;;;;;14.56;83.16;101403.55;1909434;75;20115;-62
2021/09/27 03:41:38;;;;;;;;;;;;;;;14.52;83.11;101405.95;1909184;75;20163;-61
2021/09/27 03:44:24;;;;;;;;;;;;;;;14.47;82.99;101401.31;1910622;75;20147;-61
2021/09/27 03:47:11;;;;;;;;;;;;;;;14.45;83.08;101399.20;1910622;75;20116;-62
2021/09/27 03:49:43;;;;;;;;;;;;;;;14.44;83.35;101409.39;1910631;75;20115;-62
2021/09/27 03:52:13;;;;;;;;;;;;;;;14.41;83.55;101405.09;1910584;75;20116;-62
2021/09/27 03:54:42;;;;;;;;;;;;;;;14.41;83.44;101407.75;1909726;75;20103;-63
2021/09/27 03:57:18;;;;;;;;;;;;;;;14.43;83.59;101406.36;1909432;75;20146;-61
2021/09/27 04:00:04;;;;;;;;;;;;;;;14.46;83.91;101407.08;1910143;75;20186;-62
2021/09/27 04:02:51;;;;;;;;;;;;;;;14.48;83.88;101412.32;1910492;75;20369;-62
2021/09/27 04:05:21;;;;;;;;;;;;;;;14.51;83.75;101408.19;1910549;75;20189;-61
2021/09/27 04:07:53;;;;;;;;;;;;;;;14.55;83.91;101405.81;1910202;75;20115;-62
2021/09/27 04:10:22;;;;;;;;;;;;;;;14.59;83.59;101404.78;1910093;75;20120;-60
2021/09/27 04:12:52;;;;;;;;;;;;;;;14.67;83.38;101407.92;1909505;75;20116;-61
2021/09/27 04:15:27;;;;;;;;;;;;;;;14.72;83.27;101403.75;1909350;75;20146;-62
2021/09/27 04:17:56;;;;;;;;;;;;;;;14.78;83.19;101403.94;1899132;75;20104;-61
2021/09/27 04:20:25;;;;;;;;;;;;;;;14.82;83.46;101404.18;1893081;76;20120;-61
2021/09/27 04:23:11;;;;;;;;;;;;;;;14.86;83.25;101403.98;1893032;76;20413;-61
2021/09/27 04:25:49;;;;;;;;;;;;;;;14.94;82.94;101410.25;1894615;76;20142;-60
2021/09/27 04:28:25;;;;;;;;;;;;;;;15.04;82.74;101409.34;1893505;76;20120;-61
2021/09/27 04:31:00;;;;;;;;;;;;;;;15.14;82.58;101405.78;1864014;76;20147;-61
2021/09/27 04:33:29;;;;;;;;;;;;;;;15.21;82.40;101408.06;1894562;76;20147;-61
2021/09/27 04:36:01;;;;;;;;;;;;;;;15.30;82.23;101412.55;1893697;76;20175;-60
2021/09/27 04:38:30;;;;;;;;;;;;;;;15.37;82.04;101407.34;1894565;76;20104;-60
2021/09/27 04:41:16;;;;;;;;;;;;;;;15.43;82.01;101407.89;1894562;76;20112;-60
2021/09/27 04:44:01;;;;;;;;;;;;;;;15.54;81.86;101415.80;1894534;76;20125;-61
2021/09/27 04:46:30;;;;;;;;;;;;;;;15.66;81.69;101421.84;1894807;76;20143;-60
2021/09/27 04:49:09;;;;;;;;;;;;;;;15.76;81.53;101432.42;1894448;76;20150;-60
2021/09/27 04:51:41;;;;;;;;;;;;;;;15.81;81.40;101426.41;1893916;76;20171;-61
2021/09/27 04:54:14;;;;;;;;;;;;;;;15.83;81.29;101427.19;1894190;76;20150;-60
2021/09/27 04:56:49;;;;;;;;;;;;;;;15.86;81.20;101433.28;1892382;76;20116;-61
2021/09/27 04:59:27;;;;;;;;;;;;;;;15.88;81.16;101434.06;1894698;76;20202;-60
2021/09/27 05:02:02;;;;;;;;;;;;;;;15.91;81.06;101433.92;1894698;76;20146;-61
2021/09/27 05:04:48;;;;;;;;;;;;;;;15.97;80.95;101429.62;1894841;76;20124;-60
2021/09/27 05:07:17;;;;;;;;;;;;;;;16.02;80.83;101432.42;1894688;76;20146;-60
2021/09/27 05:09:47;;;;;;;;;;;;;;;16.10;80.69;101429.85;1894682;76;20124;-60
2021/09/27 05:12:32;;;;;;;;;;;;;;;16.23;80.56;101422.11;1894837;76;20112;-60
2021/09/27 05:15:14;;;;;;;;;;;;;;;16.48;80.49;101419.88;1894729;76;20112;-60
2021/09/27 05:17:43;;;;;;;;;;;;;;;17.40;80.71;101414.48;1894546;75;20106;-60
2021/09/27 05:20:13;;;;;;;;;;;;;;;17.86;78.82;101411.37;1894365;76;20157;-60
2021/09/27 05:22:58;;;;;;;;;;;;;;;17.87;78.34;101416.21;1894398;76;20112;-60
2021/09/27 05:25:31;;;;;;;;;;;;;;;17.77;77.24;101415.02;1894348;76;20108;-60
2021/09/27 05:28:03;;;;;;;;;;;;;;;17.70;77.58;101414.52;1894367;76;20147;-60
2021/09/27 05:30:45;;;;;;;;;;;;;;;17.69;77.37;101418.98;1893886;76;20157;-61
2021/09/27 05:33:17;;;;;;;;;;;;;;;17.74;77.23;101421.36;1894339;76;20113;-61
2021/09/27 05:35:53;;;;;;;;;;;;;;;18.54;77.00;101413.11;1894480;76;20220;-61
2021/09/27 05:38:31;;;;;;;;;;;;;;;19.17;77.25;101417.17;1894397;76;20152;-60
2021/09/27 05:41:09;;;;;;;;;;;;;;;19.31;76.96;101413.59;1892981;76;20116;-61
2021/09/27 05:43:39;;;;;;;;;;;;;;;19.60;74.03;101415.19;1894297;76;20167;-62
2021/09/27 05:46:14;;;;;;;;;;;;;;;19.49;73.63;101419.06;1893264;76;20187;-62
2021/09/27 05:48:44;;;;;;;;;;;;;;;19.73;73.64;101417.94;1894374;76;20171;-60
2021/09/27 05:51:13;;;;;;;;;;;;;;;19.59;73.65;101423.34;1892890;76;20187;-61
2021/09/27 05:53:54;;;;;;;;;;;;;;;19.44;73.65;101424.72;1893979;76;20163;-61
2021/09/27 05:56:36;;;;;;;;;;;;;;;19.77;73.65;101423.93;1893346;76;20120;-61
2021/09/27 05:59:14;;;;;;;;;;;;;;;20.31;73.25;101427.83;1894371;76;20104;-60
2021/09/27 06:01:43;;;;;;;;;;;;;;;20.59;73.35;101424.08;1894340;76;20104;-60
2021/09/27 06:04:13;;;;;;;;;;;;;;;20.55;72.73;101425.75;1894340;76;20108;-60
2021/09/27 06:06:49;;;;;;;;;;;;;;;20.64;72.39;101421.13;1894240;76;20120;-61
2021/09/27 06:09:24;;;;;;;;;;;;;;;20.75;72.45;101422.55;1894333;76;20113;-60
2021/09/27 06:11:53;;;;;;;;;;;;;;;20.47;72.17;101423.59;1892765;76;20172;-61
2021/09/27 06:14:22;;;;;;;;;;;;;;;20.21;72.14;101422.73;1893605;76;20147;-61
2021/09/27 06:17:03;;;;;;;;;;;;;;;20.22;72.27;101417.77;1894489;76;20116;-61
2021/09/27 06:19:39;;;;;;;;;;;;;;;20.19;71.65;101419.31;1894499;75;20147;-61
2021/09/27 06:22:17;;;;;;;;;;;;;;;20.71;71.52;101428.22;1893797;76;20358;-61
2021/09/27 06:24:49;;;;;;;;;;;;;;;20.85;71.27;101424.57;1894600;76;20116;-60
2021/09/27 06:27:35;;;;;;;;;;;;;;;20.67;71.37;101424.89;1894583;74;20124;-60
2021/09/27 06:30:22;;;;;;;;;;;;;;;20.32;71.47;101427.34;1894686;76;20116;-60
2021/09/27 06:33:01;;;;;;;;;;;;;;;19.93;71.36;101419.27;1894670;76;20120;-60
2021/09/27 06:35:32;;;;;;;;;;;;;;;19.66;71.52;101428.16;1866276;75;20143;-60
2021/09/27 06:38:01;;;;;;;;;;;;;;;19.50;71.42;101430.13;1859577;77;20156;-60
2021/09/27 06:40:29;;;;;;;;;;;;;;;19.82;71.23;101425.83;1866948;76;20151;-59
2021/09/27 06:42:57;;;;;;;;;;;;;;;20.55;70.60;101424.41;1868922;77;20105;-59
2021/09/27 06:45:25;;;;;;;;;;;;;;;20.99;69.08;101425.28;1861257;76;20164;-59
2021/09/27 06:47:53;;;;;;;;;;;;;;;21.04;68.40;101420.92;1864506;77;20121;-59
2021/09/27 06:50:21;;;;;;;;;;;;;;;20.97;66.29;101423.66;1862351;76;20151;-61
2021/09/27 06:52:49;;;;;;;;;;;;;;;20.91;66.50;101430.31;1867725;76;20172;-60
2021/09/27 06:55:17;;;;;;;;;;;;;;;20.91;67.19;101433.48;1867246;77;20125;-60
2021/09/27 06:57:45;;;;;;;;;;;;;;;20.80;67.51;101429.77;1860023;77;20172;-59
2021/09/27 07:00:14;;;;;;;;;;;;;;;20.79;67.91;101432.06;1864262;77;20176;-60
2021/09/27 07:02:42;;;;;;;;;;;;;;;20.66;67.91;101427.22;1864396;77;20375;-59
2021/09/27 07:05:11;;;;;;;;;;;;;;;20.50;67.86;101427.89;1862621;77;20363;-60
2021/09/27 07:07:39;;;;;;;;;;;;;;;20.56;67.70;101431.45;1863612;77;20367;-60
2021/09/27 07:10:09;;;;;;;;;;;;;;;20.80;67.24;101431.57;1863890;77;20125;-60
2021/09/27 07:12:37;;;;;;;;;;;;;;;21.25;65.27;101432.37;1863894;77;20117;-59
2021/09/27 07:15:05;;;;;;;;;;;;;;;21.78;64.51;101439.16;1863929;77;20168;-59
2021/09/27 07:17:33;;;;;;;;;;;;;;;22.32;61.56;101437.75;1864105;76;20129;-60
2021/09/27 07:20:01;;;;;;;;;;;;;;;23.28;62.82;101432.88;1864084;77;20144;-59
2021/09/27 07:22:29;;;;;;;;;;;;;;;23.68;61.68;101433.58;1858267;77;20121;-59
2021/09/27 07:24:57;;;;;;;;;;;;;;;23.88;62.11;101434.16;1863484;76;20113;-59
2021/09/27 07:27:25;;;;;;;;;;;;;;;24.63;60.98;101434.92;1862386;77;20156;-60
2021/09/27 07:29:53;;;;;;;;;;;;;;;25.68;58.17;101430.94;1863825;77;20145;-60
2021/09/27 07:32:22;;;;;;;;;;;;;;;25.49;58.04;101433.14;1863792;77;20219;-60
2021/09/27 07:34:49;;;;;;;;;;;;;;;24.93;58.36;101426.45;1869537;76;20109;-60
2021/09/27 07:37:17;;;;;;;;;;;;;;;25.09;57.32;101429.98;1872065;76;20146;-60
2021/09/27 07:39:46;;;;;;;;;;;;;;;25.83;53.89;101430.52;1876313;76;20183;-60
2021/09/27 07:42:14;;;;;;;;;;;;;;;26.32;50.16;101423.20;1859241;76;20163;-60
2021/09/27 07:44:43;;;;;;;;;;;;;;;27.02;51.28;101422.33;1870517;76;20117;-60
2021/09/27 07:47:11;;;;;;;;;;;;;;;26.61;53.02;101431.25;1871822;76;20376;-60
2021/09/27 07:49:38;;;;;;;;;;;;;;;26.46;52.63;101425.45;1877260;76;20379;-59
2021/09/27 07:52:06;;;;;;;;;;;;;;;25.75;50.55;101425.34;1871596;76;20164;-60
2021/09/27 07:54:36;;;;;;;;;;;;;;;25.23;52.32;101417.94;1870390;76;20155;-60
2021/09/27 07:57:04;;;;;;;;;;;;;;;24.82;53.59;101426.56;1872259;76;20113;-61
2021/09/27 07:59:32;;;;;;;;;;;;;;;24.46;54.41;101420.72;1863307;76;20117;-60
2021/09/27 08:02:00;;;;;;;;;;;;;;;24.34;53.52;101420.43;1854192;76;20106;-60
2021/09/27 08:04:27;;;;;;;;;;;;;;;23.85;51.44;101420.13;1842334;78;20126;-60
2021/09/27 08:06:57;;;;;;;;;;;;;;;23.89;52.40;101416.19;1840381;78;20105;-60
2021/09/27 08:09:24;;;;;;;;;;;;;;;24.81;50.64;101408.20;1864532;76;20109;-60
2021/09/27 08:11:52;;;;;;;;;;;;;;;25.75;48.53;101402.41;1876880;76;20117;-59
2021/09/27 08:14:20;;;;;;;;;;;;;;;26.99;48.42;101409.63;1871049;76;20121;-59
2021/09/27 08:16:48;;;;;;;;;;;;;;;27.99;47.55;101411.30;1871147;76;20117;-60
2021/09/27 08:19:18;;;;;;;;;;;;;;;28.81;45.17;101398.73;1875439;76;20168;-59
2021/09/27 08:21:45;;;;;;;;;;;;;;;28.64;42.28;101396.47;1849785;76;20114;-60
2021/09/27 08:24:13;;;;;;;;;;;;;;;27.42;46.42;101402.66;1840879;78;20129;-61
2021/09/27 08:26:42;;;;;;;;;;;;;;;26.94;47.40;101402.79;1840685;78;20118;-60
2021/09/27 08:29:11;;;;;;;;;;;;;;;26.43;47.53;101394.70;1857575;76;20121;-60
2021/09/27 08:31:40;;;;;;;;;;;;;;;25.70;48.69;101399.28;1876988;76;20113;-60
2021/09/27 08:34:09;;;;;;;;;;;;;;;25.45;48.56;101398.50;1877107;76;20415;-60
2021/09/27 08:36:37;;;;;;;;;;;;;;;25.70;47.84;101404.68;1876299;76;20157;-60
2021/09/27 08:39:05;;;;;;;;;;;;;;;25.39;48.71;101406.16;1850562;78;20212;-60
2021/09/27 08:41:40;;;;;;;;;;;;;;;25.67;48.67;101410.85;1850568;78;20113;-60
2021/09/27 08:44:12;;;;;;;;;;;;;;;25.18;49.53;101406.75;1850587;77;20382;-60
2021/09/27 08:46:42;;;;;;;;;;;;;;;25.33;49.57;101401.84;1849779;77;20129;-60
2021/09/27 08:49:20;;;;;;;;;;;;;;;25.80;49.27;101406.89;1850529;78;20117;-61
2021/09/27 08:51:48;;;;;;;;;;;;;;;25.57;49.45;101404.97;1850287;77;20152;-60
2021/09/27 08:54:17;;;;;;;;;;;;;;;25.16;50.17;101407.39;1850674;78;20105;-61
2021/09/27 08:56:55;;;;;;;;;;;;;;;24.78;50.45;101404.94;1850607;78;20152;-60
2021/09/27 08:59:28;;;;;;;;;;;;;;;24.31;50.71;101404.54;1850716;78;20113;-61
2021/09/27 09:02:01;;;;;;;;;;;;;;;23.87;51.16;101405.55;1850555;76;20517;-61
2021/09/27 09:04:45;;;;;;;;;;;;;;;23.97;50.99;101400.73;1850600;78;20390;-61
2021/09/27 09:07:14;;;;;;;;;;;;;;;24.44;50.30;101403.86;1850161;77;20117;-61
2021/09/27 09:09:46;;;;;;;;;;;;;;;26.24;48.23;101396.11;1850613;76;20117;-61
2021/09/27 09:12:22;;;;;;;;;;;;;;;27.63;43.38;101385.63;1850471;78;20121;-61
2021/09/27 09:14:54;;;;;;;;;;;;;;;28.22;44.74;101388.63;1850558;78;20117;-61
2021/09/27 09:17:41;;;;;;;;;;;;;;;27.79;44.73;101389.46;1850109;77;20129;-61
2021/09/27 09:20:10;;;;;;;;;;;;;;;26.56;44.69;101392.52;1850571;78;20117;-60
2021/09/27 09:22:39;;;;;;;;;;;;;;;25.52;45.84;101395.59;1850434;76;20156;-60
2021/09/27 09:25:10;;;;;;;;;;;;;;;25.02;47.16;101394.65;1850581;78;20113;-60
2021/09/27 09:27:38;;;;;;;;;;;;;;;24.90;47.56;101397.59;1850668;76;20164;-60
2021/09/27 09:30:07;;;;;;;;;;;;;;;25.33;46.71;101398.64;1850570;78;20117;-60
2021/09/27 09:32:37;;;;;;;;;;;;;;;26.58;46.07;101386.46;1850505;78;20121;-60
2021/09/27 09:35:15;;;;;;;;;;;;;;;27.20;45.72;101399.36;1850525;78;20364;-62
2021/09/27 09:37:44;;;;;;;;;;;;;;;26.93;45.85;101401.11;1850651;78;20148;-61
2021/09/27 09:40:20;;;;;;;;;;;;;;;26.25;46.21;101387.88;1850034;77;20109;-60
2021/09/27 09:42:55;;;;;;;;;;;;;;;25.42;46.12;101393.75;1850420;77;20121;-61
2021/09/27 09:45:25;;;;;;;;;;;;;;;25.02;47.23;101389.77;1850646;78;20125;-62
2021/09/27 09:47:53;;;;;;;;;;;;;;;25.02;47.45;101389.26;1850545;78;20192;-60
2021/09/27 09:50:25;;;;;;;;;;;;;;;25.02;46.90;101385.72;1850615;78;20116;-60
2021/09/27 09:52:58;;;;;;;;;;;;;;;26.18;45.91;101378.66;1850556;78;20376;-60
2021/09/27 09:55:43;;;;;;;;;;;;;;;27.44;44.75;101385.78;1850561;78;20368;-60
2021/09/27 09:58:12;;;;;;;;;;;;;;;28.32;43.70;101380.38;1850496;78;20117;-61
2021/09/27 10:00:42;;;;;;;;;;;;;;;28.18;43.72;101375.55;1850590;76;20394;-60
2021/09/27 10:03:11;;;;;;;;;;;;;;;28.32;40.48;101370.90;1850553;78;20152;-61
2021/09/27 10:05:41;;;;;;;;;;;;;;;28.11;40.42;101373.49;1850493;77;20148;-61
2021/09/27 10:08:10;;;;;;;;;;;;;;;28.14;41.27;101380.95;1850552;78;20375;-61
2021/09/27 10:10:45;;;;;;;;;;;;;;;27.96;41.36;101378.28;1850077;77;20168;-61
2021/09/27 10:13:31;;;;;;;;;;;;;;;26.89;41.11;101386.20;1849912;77;20148;-60
2021/09/27 10:15:59;;;;;;;;;;;;;;;25.74;42.21;101388.56;1850545;78;20152;-61
2021/09/27 10:18:31;;;;;;;;;;;;;;;24.73;43.71;101386.98;1850574;78;20108;-61
2021/09/27 10:21:06;;;;;;;;;;;;;;;24.26;44.71;101386.96;1850503;78;20148;-61
2021/09/27 10:23:45;;;;;;;;;;;;;;;24.75;44.93;101387.69;1850655;78;20141;-61
2021/09/27 10:26:21;;;;;;;;;;;;;;;25.57;44.16;101382.55;1850578;78;20150;-61
2021/09/27 10:28:51;;;;;;;;;;;;;;;26.02;43.85;101377.90;1850708;78;20122;-61
2021/09/27 10:31:23;;;;;;;;;;;;;;;26.97;42.62;101382.74;1850469;78;20117;-62
2021/09/27 10:33:52;;;;;;;;;;;;;;;26.90;42.38;101384.34;1850569;76;20180;-61
2021/09/27 10:36:36;;;;;;;;;;;;;;;26.22;42.94;101385.95;1862724;76;20151;-61
2021/09/27 10:39:06;;;;;;;;;;;;;;;25.68;44.13;101389.14;1894722;76;20112;-61
2021/09/27 10:41:35;;;;;;;;;;;;;;;24.99;44.40;101380.59;1896079;76;20401;-61
2021/09/27 10:44:05;;;;;;;;;;;;;;;24.70;45.05;101384.08;1895967;76;20151;-61
2021/09/27 10:46:34;;;;;;;;;;;;;;;24.89;44.79;101376.55;1896019;76;20116;-61
2021/09/27 10:49:04;;;;;;;;;;;;;;;25.27;44.36;101376.77;1896098;76;20128;-61
2021/09/27 10:51:38;;;;;;;;;;;;;;;25.42;43.94;101373.53;1896145;76;20140;-61
2021/09/27 10:54:14;;;;;;;;;;;;;;;25.49;43.95;101371.61;1896094;76;20155;-61
2021/09/27 10:56:43;;;;;;;;;;;;;;;25.85;43.34;101369.19;1893096;76;20183;-61
2021/09/27 10:59:17;;;;;;;;;;;;;;;25.84;43.28;101367.47;1895507;76;20109;-60
2021/09/27 11:01:43;;;;;;;;;;;;;;;25.33;43.31;101364.95;1894738;76;20104;-60
2021/09/27 11:04:15;;;;;;;;;;;;;;;24.77;42.93;101361.48;1896211;76;20120;-60
2021/09/27 11:06:44;;;;;;;;;;;;;;;24.23;43.82;101371.08;1896028;76;20147;-63
2021/09/27 11:09:21;;;;;;;;;;;;;;;23.77;44.72;101372.31;1894662;76;20112;-60
2021/09/27 11:11:59;;;;;;;;;;;;;;;23.55;44.85;101376.47;1893245;76;20116;-60
2021/09/27 11:14:40;;;;;;;;;;;;;;;23.61;45.41;101378.63;1896047;76;20120;-60
2021/09/27 11:17:09;;;;;;;;;;;;;;;24.10;44.63;101370.44;1896184;76;20164;-61
2021/09/27 11:19:39;;;;;;;;;;;;;;;24.52;44.34;101367.70;1896030;76;20183;-60
2021/09/27 11:22:18;;;;;;;;;;;;;;;24.83;44.22;101360.95;1895206;76;20108;-60
2021/09/27 11:24:47;;;;;;;;;;;;;;;24.92;43.97;101361.47;1896111;76;20145;-60
2021/09/27 11:27:19;;;;;;;;;;;;;;;24.97;44.11;101365.07;1896063;76;20119;-60
2021/09/27 11:29:51;;;;;;;;;;;;;;;24.63;43.68;101378.38;1896003;76;20108;-61
2021/09/27 11:32:28;;;;;;;;;;;;;;;24.30;44.36;101380.83;1896045;76;20116;-60
2021/09/27 11:34:58;;;;;;;;;;;;;;;23.88;44.57;101379.03;1896170;76;20109;-60
2021/09/27 11:37:27;;;;;;;;;;;;;;;23.37;44.92;101379.72;1896170;76;20120;-60
2021/09/27 11:39:59;;;;;;;;;;;;;;;22.97;45.56;101373.56;1896090;76;20120;-60
2021/09/27 11:42:38;;;;;;;;;;;;;;;22.80;45.95;101370.07;1892595;76;20206;-60
2021/09/27 11:45:18;;;;;;;;;;;;;;;22.49;46.12;101365.81;1896056;76;20112;-60
2021/09/27 11:47:50;;;;;;;;;;;;;;;22.23;46.30;101370.03;1895090;76;20179;-60
2021/09/27 11:50:30;;;;;;;;;;;;;;;22.12;46.79;101366.00;1885968;76;20206;-60
2021/09/27 11:53:04;;;;;;;;;;;;;;;21.94;46.94;101359.73;1896121;76;20160;-61
2021/09/27 11:55:32;;;;;;;;;;;;;;;21.83;47.43;101367.75;1894551;76;20132;-60
2021/09/27 11:58:02;;;;;;;;;;;;;;;21.73;47.66;101364.93;1895971;76;20112;-62
2021/09/27 12:00:32;;;;;;;;;;;;;;;21.64;47.74;101359.42;1896040;76;20116;-60
2021/09/27 12:03:20;;;;;;;;;;;;;;;21.52;47.87;101357.17;1894882;76;20146;-61
2021/09/27 12:06:09;;;;;;;;;;;;;;;21.41;47.71;101353.92;1896072;76;20156;-60
2021/09/27 12:08:40;;;;;;;;;;;;;;;21.31;46.66;101355.11;1896436;76;20158;-61
2021/09/27 12:11:13;;;;;;;;;;;;;;;21.25;47.69;101357.38;1896067;76;20198;-60
2021/09/27 12:13:42;;;;;;;;;;;;;;;21.15;47.97;101352.70;1895939;76;20108;-61
2021/09/27 12:16:15;;;;;;;;;;;;;;;21.08;47.68;101358.63;1896012;76;20147;-61
2021/09/27 12:18:54;;;;;;;;;;;;;;;21.03;47.69;101358.98;1896283;76;20151;-61
2021/09/27 12:21:33;;;;;;;;;;;;;;;20.96;48.16;101363.08;1896033;76;20112;-60
2021/09/27 12:24:08;;;;;;;;;;;;;;;20.96;48.28;101364.42;1895964;76;20120;-61
2021/09/27 12:26:38;;;;;;;;;;;;;;;20.96;48.22;101361.74;1896153;76;20108;-60
2021/09/27 12:29:07;;;;;;;;;;;;;;;20.95;48.28;101364.91;1896039;76;20116;-61
2021/09/27 12:31:35;;;;;;;;;;;;;;;20.93;48.22;101367.30;1891672;76;20147;-60
2021/09/27 12:34:08;;;;;;;;;;;;;;;20.86;48.27;101366.04;1896004;76;20108;-60
2021/09/27 12:36:37;;;;;;;;;;;;;;;20.80;48.58;101373.57;1895929;76;20117;-61
2021/09/27 12:39:06;;;;;;;;;;;;;;;20.76;48.30;101364.03;1894992;76;20120;-60
2021/09/27 12:41:34;;;;;;;;;;;;;;;20.65;48.19;101369.80;1896067;76;20128;-60
2021/09/27 12:44:06;;;;;;;;;;;;;;;20.59;48.46;101371.06;1896002;76;20116;-60
2021/09/27 12:46:34;;;;;;;;;;;;;;;20.58;48.69;101368.00;1895654;76;20120;-60
2021/09/27 12:49:07;;;;;;;;;;;;;;;20.63;48.28;101373.91;1895939;76;20120;-61
2021/09/27 12:51:40;;;;;;;;;;;;;;;20.69;48.67;101367.27;1896090;76;20108;-60
2021/09/27 12:54:09;;;;;;;;;;;;;;;20.74;48.67;101367.30;1895740;76;20117;-61
2021/09/27 12:56:37;;;;;;;;;;;;;;;20.71;48.77;101375.58;1896015;76;20108;-61
2021/09/27 12:59:09;;;;;;;;;;;;;;;20.71;48.70;101382.72;1895981;76;20116;-61
2021/09/27 13:01:38;;;;;;;;;;;;;;;20.62;48.92;101378.91;1895384;76;20183;-61
2021/09/27 13:04:08;;;;;;;;;;;;;;;20.46;49.39;101380.92;1895699;76;20117;-61